RINGO25 KHIF-
Flight info
| Callsign | RINGO25 |
|---|---|
| Flight time | N/A |
| Altitude | VFR |
| Route | |
| Aircraft | F35/M-VGD/C |
Departure
| Time | 2026-04-14 23:45 |
|---|---|
| Airport | Hill Air Force Base (KHIF) |
Arrival
| Time | N/A |
|---|---|
| Airport | - |
| Time | Latitude | Longitude | Altitude | Speed | Heading |
|---|---|---|---|---|---|
| 2026-04-14 23:39 | 41.12280 | -111.97871 | 4851 ft | 11 kts | 49° |
| 2026-04-14 23:39 | 41.12325 | -111.97802 | 4852 ft | 9 kts | 50° |
| 2026-04-14 23:39 | 41.12362 | -111.97740 | 4851 ft | 8 kts | 54° |
| 2026-04-14 23:40 | 41.12376 | -111.97656 | 4852 ft | 14 kts | 85° |
| 2026-04-14 23:40 | 41.12307 | -111.97568 | 4852 ft | 14 kts | 153° |
| 2026-04-14 23:40 | 41.12206 | -111.97501 | 4852 ft | 16 kts | 154° |
| 2026-04-14 23:40 | 41.12111 | -111.97438 | 4852 ft | 14 kts | 152° |
| 2026-04-14 23:41 | 41.12009 | -111.97367 | 4853 ft | 18 kts | 153° |
| 2026-04-14 23:41 | 41.11903 | -111.97294 | 4852 ft | 16 kts | 154° |
| 2026-04-14 23:41 | 41.11789 | -111.97218 | 4853 ft | 21 kts | 154° |
| 2026-04-14 23:41 | 41.11662 | -111.97132 | 4853 ft | 20 kts | 153° |
| 2026-04-14 23:42 | 41.11546 | -111.97057 | 4852 ft | 18 kts | 154° |
| 2026-04-14 23:42 | 41.11441 | -111.96983 | 4853 ft | 16 kts | 151° |
| 2026-04-14 23:42 | 41.11320 | -111.96899 | 4853 ft | 23 kts | 153° |
| 2026-04-14 23:42 | 41.11159 | -111.96791 | 4854 ft | 28 kts | 153° |
| 2026-04-14 23:43 | 41.10993 | -111.96680 | 4853 ft | 26 kts | 153° |
| 2026-04-14 23:43 | 41.10839 | -111.96575 | 4853 ft | 24 kts | 153° |
| 2026-04-14 23:43 | 41.10707 | -111.96481 | 4854 ft | 19 kts | 141° |
| 2026-04-14 23:43 | 41.10707 | -111.96334 | 4853 ft | 13 kts | 63° |
| 2026-04-14 23:44 | 41.10723 | -111.96295 | 4852 ft | 4 kts | 60° |
| 2026-04-14 23:44 | 41.10757 | -111.96216 | 4852 ft | 10 kts | 55° |
| 2026-04-14 23:44 | 41.10805 | -111.96230 | 4851 ft | 8 kts | 332° |
| 2026-04-14 23:44 | 41.11315 | -111.96577 | 4853 ft | 171 kts | 332° |
| 2026-04-14 23:45 | 41.12803 | -111.97593 | 5090 ft | 308 kts | 332° |
| 2026-04-14 23:45 | 41.14219 | -111.98557 | 6113 ft | 335 kts | 332° |
| 2026-04-14 23:45 | 41.15613 | -111.99498 | 12360 ft | 209 kts | 330° |
| 2026-04-14 23:45 | 41.17368 | -112.00717 | 14817 ft | 343 kts | 329° |
| 2026-04-14 23:46 | 41.19723 | -112.02433 | 15948 ft | 429 kts | 325° |
| 2026-04-14 23:46 | 41.22206 | -112.05399 | 16426 ft | 536 kts | 306° |
| 2026-04-14 23:46 | 41.24163 | -112.09953 | 16567 ft | 573 kts | 290° |
| 2026-04-14 23:46 | 41.25075 | -112.14873 | 16616 ft | 546 kts | 277° |
| 2026-04-14 23:47 | 41.25183 | -112.19879 | 16525 ft | 543 kts | 268° |
| 2026-04-14 23:47 | 41.25001 | -112.24898 | 16504 ft | 543 kts | 266° |
| 2026-04-14 23:47 | 41.24765 | -112.29907 | 16495 ft | 544 kts | 266° |
| 2026-04-14 23:47 | 41.24512 | -112.34918 | 16466 ft | 543 kts | 266° |
| 2026-04-14 23:48 | 41.24251 | -112.39924 | 16460 ft | 544 kts | 266° |
| 2026-04-14 23:48 | 41.23981 | -112.44943 | 16453 ft | 543 kts | 266° |
| 2026-04-14 23:48 | 41.23708 | -112.49956 | 16451 ft | 545 kts | 266° |
| 2026-04-14 23:48 | 41.23431 | -112.54966 | 16440 ft | 544 kts | 266° |
| 2026-04-14 23:49 | 41.23149 | -112.59987 | 16434 ft | 545 kts | 266° |
| 2026-04-14 23:49 | 41.22863 | -112.65012 | 16441 ft | 545 kts | 266° |
| 2026-04-14 23:49 | 41.22576 | -112.69973 | 16434 ft | 546 kts | 266° |
| 2026-04-14 23:49 | 41.22279 | -112.74990 | 16430 ft | 545 kts | 266° |
| 2026-04-14 23:50 | 41.21976 | -112.80024 | 16438 ft | 546 kts | 266° |
| 2026-04-14 23:50 | 41.21664 | -112.85103 | 16758 ft | 545 kts | 266° |
| 2026-04-14 23:50 | 41.21349 | -112.90106 | 17542 ft | 554 kts | 266° |
| 2026-04-14 23:50 | 41.21017 | -112.95250 | 18359 ft | 563 kts | 266° |
| 2026-04-14 23:51 | 41.20673 | -113.00456 | 19064 ft | 568 kts | 266° |
| 2026-04-14 23:51 | 41.20317 | -113.05712 | 19798 ft | 574 kts | 266° |
| 2026-04-14 23:51 | 41.19950 | -113.11018 | 20546 ft | 580 kts | 266° |
| 2026-04-14 23:51 | 41.19572 | -113.16378 | 21277 ft | 582 kts | 266° |
| 2026-04-14 23:52 | 41.19198 | -113.21614 | 23329 ft | 565 kts | 266° |
| 2026-04-14 23:52 | 41.18824 | -113.26848 | 24431 ft | 574 kts | 267° |
| 2026-04-14 23:52 | 41.18445 | -113.32175 | 24548 ft | 581 kts | 267° |
| 2026-04-14 23:52 | 41.18068 | -113.37435 | 25657 ft | 503 kts | 267° |
| 2026-04-14 23:53 | 41.17834 | -113.38376 | 34940 ft | 233 kts | 86° |
| 2026-04-14 23:53 | 41.17649 | -113.36355 | 31929 ft | 52 kts | 262° |
| 2026-04-14 23:53 | 41.17232 | -113.38902 | 26152 ft | 416 kts | 264° |
| 2026-04-14 23:53 | 41.16601 | -113.42948 | 26211 ft | 489 kts | 252° |
| 2026-04-14 23:54 | 41.13996 | -113.45750 | 26223 ft | 529 kts | 182° |
| 2026-04-14 23:54 | 41.09844 | -113.46182 | 25392 ft | 593 kts | 190° |
| 2026-04-14 23:54 | 41.05908 | -113.47334 | 25177 ft | 601 kts | 196° |
| 2026-04-14 23:54 | 41.02374 | -113.48558 | 28479 ft | 372 kts | 181° |
| 2026-04-14 23:55 | 41.01232 | -113.46940 | 33992 ft | 279 kts | 100° |
| 2026-04-14 23:55 | 41.00412 | -113.44520 | 31001 ft | 282 kts | 155° |
| 2026-04-14 23:55 | 40.97598 | -113.44638 | 25739 ft | 522 kts | 194° |
| 2026-04-14 23:55 | 40.94058 | -113.45689 | 27969 ft | 366 kts | 184° |
| 2026-04-14 23:56 | 40.93019 | -113.44205 | 33433 ft | 254 kts | 86° |
| 2026-04-14 23:56 | 40.92430 | -113.42469 | 27751 ft | 280 kts | 179° |
| 2026-04-14 23:56 | 40.89588 | -113.42568 | 25437 ft | 459 kts | 183° |
| 2026-04-14 23:56 | 40.86093 | -113.42765 | 25444 ft | 547 kts | 183° |
| 2026-04-14 23:57 | 40.82052 | -113.43008 | 25485 ft | 601 kts | 183° |
| 2026-04-14 23:57 | 40.77880 | -113.43251 | 25482 ft | 590 kts | 183° |
| 2026-04-14 23:57 | 40.73819 | -113.43504 | 25451 ft | 582 kts | 183° |
| 2026-04-14 23:57 | 40.69785 | -113.43755 | 25415 ft | 580 kts | 183° |
| 2026-04-14 23:58 | 40.65750 | -113.43999 | 25382 ft | 579 kts | 182° |
| 2026-04-14 23:58 | 40.61756 | -113.44081 | 27502 ft | 459 kts | 181° |
| 2026-04-14 23:58 | 40.61231 | -113.44038 | 36272 ft | 103 kts | 1° |
| 2026-04-14 23:58 | 40.62028 | -113.44061 | 35076 ft | 97 kts | 354° |
| 2026-04-14 23:59 | 40.61159 | -113.44207 | 26695 ft | 381 kts | 188° |
| 2026-04-14 23:59 | 40.58188 | -113.44745 | 26060 ft | 468 kts | 190° |
| 2026-04-14 23:59 | 40.54588 | -113.45513 | 26335 ft | 575 kts | 190° |
| 2026-04-14 23:59 | 40.52819 | -113.45841 | 35018 ft | 79 kts | 10° |
| 2026-04-15 00:00 | 40.53559 | -113.45546 | 36909 ft | 133 kts | 12° |
| 2026-04-15 00:00 | 40.53379 | -113.45429 | 29731 ft | 296 kts | 188° |
| 2026-04-15 00:00 | 40.50313 | -113.45961 | 26436 ft | 514 kts | 189° |
| 2026-04-15 00:00 | 40.46475 | -113.46670 | 26360 ft | 591 kts | 189° |
| 2026-04-15 00:01 | 40.42635 | -113.47344 | 29542 ft | 434 kts | 177° |
| 2026-04-15 00:01 | 40.40986 | -113.45373 | 34902 ft | 350 kts | 106° |
| 2026-04-15 00:01 | 40.39235 | -113.44316 | 29661 ft | 396 kts | 191° |
| 2026-04-15 00:01 | 40.36228 | -113.44946 | 28958 ft | 483 kts | 190° |
| 2026-04-15 00:02 | 40.33118 | -113.45283 | 33063 ft | 296 kts | 128° |
| 2026-04-15 00:02 | 40.32178 | -113.42775 | 34952 ft | 325 kts | 110° |
| 2026-04-15 00:02 | 40.29866 | -113.41918 | 26913 ft | 573 kts | 190° |
| 2026-04-15 00:02 | 40.25775 | -113.42661 | 27606 ft | 524 kts | 188° |
| 2026-04-15 00:03 | 40.23735 | -113.40578 | 33375 ft | 437 kts | 100° |
| 2026-04-15 00:03 | 40.21796 | -113.38416 | 23914 ft | 538 kts | 177° |
| 2026-04-15 00:03 | 40.17529 | -113.38105 | 23249 ft | 641 kts | 178° |
| 2026-04-15 00:03 | 40.12974 | -113.37840 | 23974 ft | 652 kts | 181° |
| 2026-04-15 00:04 | 40.08571 | -113.38611 | 24409 ft | 630 kts | 191° |
| 2026-04-15 00:04 | 40.04685 | -113.39435 | 27305 ft | 432 kts | 179° |
| 2026-04-15 00:04 | 40.03253 | -113.37276 | 31859 ft | 318 kts | 112° |
| 2026-04-15 00:04 | 40.01260 | -113.36974 | 26219 ft | 425 kts | 193° |
| 2026-04-15 00:05 | 39.98702 | -113.37259 | 28535 ft | 250 kts | 131° |
| 2026-04-15 00:05 | 39.97692 | -113.35254 | 26755 ft | 262 kts | 115° |
| 2026-04-15 00:05 | 39.95895 | -113.33290 | 23731 ft | 329 kts | 83° |
| 2026-04-15 00:05 | 39.97224 | -113.31387 | 23171 ft | 332 kts | 30° |
| 2026-04-15 00:06 | 39.99472 | -113.29538 | 23067 ft | 431 kts | 30° |
| 2026-04-15 00:06 | 40.00903 | -113.27228 | 26531 ft | 327 kts | 101° |
| 2026-04-15 00:06 | 40.00994 | -113.24438 | 22192 ft | 340 kts | 25° |
| 2026-04-15 00:06 | 40.04129 | -113.23114 | 20950 ft | 490 kts | 17° |
| 2026-04-15 00:07 | 40.05117 | -113.20232 | 24823 ft | 428 kts | 95° |
| 2026-04-15 00:07 | 40.06875 | -113.17473 | 20903 ft | 512 kts | 24° |
| 2026-04-15 00:07 | 40.10086 | -113.15687 | 24184 ft | 523 kts | 20° |
| 2026-04-15 00:07 | 40.13757 | -113.14285 | 24544 ft | 560 kts | 11° |
| 2026-04-15 00:08 | 40.16981 | -113.13371 | 29393 ft | 163 kts | 9° |
| 2026-04-15 00:08 | 40.15610 | -113.13608 | 34698 ft | 283 kts | 191° |
| 2026-04-15 00:08 | 40.15982 | -113.13331 | 26626 ft | 370 kts | 13° |
| 2026-04-15 00:08 | 40.19063 | -113.12311 | 25337 ft | 515 kts | 13° |
| 2026-04-15 00:09 | 40.22732 | -113.11159 | 25530 ft | 516 kts | 343° |
| 2026-04-15 00:09 | 40.22796 | -113.13419 | 28272 ft | 345 kts | 202° |
| 2026-04-15 00:09 | 40.20613 | -113.14199 | 21884 ft | 463 kts | 192° |
| 2026-04-15 00:09 | 40.19662 | -113.14377 | 27725 ft | 150 kts | 7° |
| 2026-04-15 00:10 | 40.21152 | -113.14061 | 25893 ft | 299 kts | 7° |
| 2026-04-15 00:10 | 40.22449 | -113.13810 | 15550 ft | 417 kts | 188° |
| 2026-04-15 00:10 | 40.21068 | -113.15734 | 15492 ft | 293 kts | 269° |
| 2026-04-15 00:10 | 40.19822 | -113.16550 | 13101 ft | 87 kts | 43° |
| 2026-04-15 00:11 | 40.20846 | -113.15673 | 13928 ft | 41 kts | 214° |
| 2026-04-15 00:11 | 40.19903 | -113.16419 | 13237 ft | 132 kts | 225° |
| 2026-04-15 00:11 | 40.19914 | -113.18301 | 11111 ft | 241 kts | 255° |
| 2026-04-15 00:11 | 40.18871 | -113.21017 | 10335 ft | 447 kts | 242° |
| 2026-04-15 00:12 | 40.18288 | -113.22205 | 19118 ft | 21 kts | 30° |
| 2026-04-15 00:12 | 40.18382 | -113.21944 | 28438 ft | 184 kts | 40° |
| 2026-04-15 00:12 | 40.19649 | -113.20223 | 29688 ft | 297 kts | 39° |
| 2026-04-15 00:12 | 40.21144 | -113.18118 | 30039 ft | 335 kts | 43° |
| 2026-04-15 00:13 | 40.23000 | -113.15924 | 29795 ft | 392 kts | 39° |
| 2026-04-15 00:13 | 40.24607 | -113.14183 | 32589 ft | 56 kts | 20° |
| 2026-04-15 00:13 | 40.24455 | -113.14076 | 35059 ft | 32 kts | 251° |
| 2026-04-15 00:13 | 40.24173 | -113.13988 | 31057 ft | 78 kts | 178° |
| 2026-04-15 00:14 | 40.23230 | -113.12679 | 25920 ft | 284 kts | 122° |
| 2026-04-15 00:14 | 40.22541 | -113.09852 | 24653 ft | 389 kts | 88° |
| 2026-04-15 00:14 | 40.23843 | -113.07292 | 23918 ft | 341 kts | 307° |
| 2026-04-15 00:14 | 40.22790 | -113.08481 | 22272 ft | 326 kts | 126° |
| 2026-04-15 00:15 | 40.23519 | -113.07139 | 20806 ft | 269 kts | 295° |
| 2026-04-15 00:15 | 40.22459 | -113.07760 | 19059 ft | 300 kts | 95° |
| 2026-04-15 00:15 | 40.23442 | -113.07264 | 17711 ft | 234 kts | 271° |
| 2026-04-15 00:15 | 40.22116 | -113.08393 | 17138 ft | 308 kts | 196° |
| 2026-04-15 00:16 | 40.19515 | -113.09151 | 17394 ft | 453 kts | 194° |
| 2026-04-15 00:16 | 40.16276 | -113.08310 | 18064 ft | 555 kts | 118° |
| 2026-04-15 00:16 | 40.17550 | -113.04143 | 18296 ft | 576 kts | 9° |
| 2026-04-15 00:16 | 40.19926 | -113.07110 | 18171 ft | 573 kts | 252° |
| 2026-04-15 00:17 | 40.16792 | -113.09948 | 18524 ft | 571 kts | 242° |
| 2026-04-15 00:17 | 40.18273 | -113.13689 | 18212 ft | 571 kts | 5° |
| 2026-04-15 00:17 | 40.19358 | -113.09679 | 17751 ft | 597 kts | 139° |
| 2026-04-15 00:17 | 40.15365 | -113.09501 | 17724 ft | 608 kts | 190° |
| 2026-04-15 00:18 | 40.08429 | -113.09250 | 17687 ft | 367 kts | 20° |
| 2026-04-15 00:18 | 40.09954 | -113.09364 | 19998 ft | 225 kts | 324° |
| 2026-04-15 00:18 | 40.11034 | -113.08725 | 18622 ft | 291 kts | 122° |
| 2026-04-15 00:19 | 40.09590 | -113.07059 | 16737 ft | 369 kts | 158° |
| 2026-04-15 00:19 | 40.08985 | -113.04278 | 16349 ft | 430 kts | 50° |
| 2026-04-15 00:19 | 40.11721 | -113.01401 | 15819 ft | 569 kts | 33° |
| 2026-04-15 00:19 | 40.15057 | -112.98595 | 17037 ft | 569 kts | 30° |
| 2026-04-15 00:20 | 40.18276 | -112.95722 | 16915 ft | 568 kts | 39° |
| 2026-04-15 00:20 | 40.20891 | -112.91868 | 16729 ft | 568 kts | 52° |
| 2026-04-15 00:20 | 40.23248 | -112.87724 | 16616 ft | 565 kts | 50° |
| 2026-04-15 00:20 | 40.26079 | -112.84205 | 16604 ft | 562 kts | 33° |
| 2026-04-15 00:21 | 40.29465 | -112.81684 | 16598 ft | 559 kts | 25° |
| 2026-04-15 00:21 | 40.32987 | -112.79530 | 16570 ft | 558 kts | 22° |
| 2026-04-15 00:21 | 40.36549 | -112.77498 | 16546 ft | 558 kts | 21° |
| 2026-04-15 00:21 | 40.40126 | -112.75518 | 16536 ft | 558 kts | 21° |
| 2026-04-15 00:22 | 40.43707 | -112.73563 | 16527 ft | 558 kts | 21° |
| 2026-04-15 00:22 | 40.47298 | -112.71616 | 16521 ft | 558 kts | 21° |
| 2026-04-15 00:22 | 40.50890 | -112.69675 | 16531 ft | 558 kts | 21° |
| 2026-04-15 00:22 | 40.54487 | -112.67734 | 16540 ft | 559 kts | 21° |
| 2026-04-15 00:23 | 40.58082 | -112.65794 | 16546 ft | 558 kts | 21° |
| 2026-04-15 00:23 | 40.61675 | -112.63856 | 16544 ft | 559 kts | 21° |
| 2026-04-15 00:23 | 40.65268 | -112.61916 | 16547 ft | 558 kts | 21° |
| 2026-04-15 00:23 | 40.68864 | -112.59970 | 16550 ft | 558 kts | 21° |
| 2026-04-15 00:24 | 40.72453 | -112.58027 | 16546 ft | 559 kts | 21° |
| 2026-04-15 00:24 | 40.76055 | -112.56073 | 16537 ft | 558 kts | 21° |
| 2026-04-15 00:24 | 40.79646 | -112.54122 | 16538 ft | 559 kts | 21° |
| 2026-04-15 00:24 | 40.83192 | -112.52194 | 16367 ft | 560 kts | 21° |
| 2026-04-15 00:25 | 40.86764 | -112.50247 | 15618 ft | 554 kts | 21° |
| 2026-04-15 00:25 | 40.90310 | -112.48307 | 14876 ft | 549 kts | 21° |
| 2026-04-15 00:25 | 40.93815 | -112.46379 | 14154 ft | 544 kts | 21° |
| 2026-04-15 00:25 | 40.97290 | -112.44460 | 13384 ft | 539 kts | 21° |
| 2026-04-15 00:26 | 41.00727 | -112.42559 | 12602 ft | 532 kts | 21° |
| 2026-04-15 00:26 | 41.04130 | -112.40676 | 11848 ft | 527 kts | 21° |
| 2026-04-15 00:26 | 41.07505 | -112.38806 | 11139 ft | 524 kts | 21° |
| 2026-04-15 00:26 | 41.10853 | -112.36916 | 10435 ft | 522 kts | 24° |
| 2026-04-15 00:27 | 41.13913 | -112.34317 | 9765 ft | 522 kts | 38° |
| 2026-04-15 00:27 | 41.16430 | -112.30871 | 9151 ft | 521 kts | 52° |
| 2026-04-15 00:27 | 41.17998 | -112.26662 | 9319 ft | 505 kts | 73° |
| 2026-04-15 00:27 | 41.18049 | -112.22089 | 9105 ft | 494 kts | 110° |
| 2026-04-15 00:28 | 41.16314 | -112.18085 | 7728 ft | 511 kts | 122° |
| 2026-04-15 00:28 | 41.14450 | -112.14151 | 7455 ft | 502 kts | 122° |
| 2026-04-15 00:28 | 41.12620 | -112.10292 | 7382 ft | 476 kts | 122° |
| 2026-04-15 00:28 | 41.10896 | -112.06654 | 7302 ft | 459 kts | 122° |
| 2026-04-15 00:29 | 41.08988 | -112.03319 | 7205 ft | 451 kts | 135° |
| 2026-04-15 00:29 | 41.06543 | -112.00775 | 7173 ft | 444 kts | 150° |
| 2026-04-15 00:29 | 41.03864 | -111.98889 | 7176 ft | 439 kts | 152° |
| 2026-04-15 00:29 | 41.02933 | -111.95752 | 6968 ft | 401 kts | 50° |
| 2026-04-15 00:30 | 41.05444 | -111.93955 | 6577 ft | 412 kts | 20° |
| 2026-04-15 00:30 | 41.07947 | -111.94369 | 6279 ft | 382 kts | 333° |
| 2026-04-15 00:30 | 41.10317 | -111.95929 | 5902 ft | 377 kts | 333° |
| 2026-04-15 00:30 | 41.11852 | -111.96919 | 5901 ft | 366 kts | 333° |
| 2026-04-15 00:31 | 41.12557 | -111.99122 | 5983 ft | 258 kts | 233° |
| 2026-04-15 00:31 | 41.11126 | -111.99497 | 5853 ft | 205 kts | 152° |
| 2026-04-15 00:31 | 41.09949 | -111.98780 | 5722 ft | 186 kts | 157° |
| 2026-04-15 00:31 | 41.08770 | -111.97885 | 5706 ft | 200 kts | 127° |
| 2026-04-15 00:32 | 41.08872 | -111.96279 | 5565 ft | 189 kts | 39° |
| 2026-04-15 00:32 | 41.10122 | -111.95814 | 5178 ft | 185 kts | 341° |
| 2026-04-15 00:32 | 41.11273 | -111.96548 | 4817 ft | 165 kts | 333° |
| 2026-04-15 00:32 | 41.12078 | -111.97092 | 4802 ft | 98 kts | 333° |
| 2026-04-15 00:33 | 41.12549 | -111.97411 | 4800 ft | 60 kts | 333° |
| 2026-04-15 00:33 | 41.12894 | -111.97643 | 4801 ft | 50 kts | 332° |
| 2026-04-15 00:33 | 41.13142 | -111.97824 | 4802 ft | 34 kts | 311° |
| 2026-04-15 00:33 | 41.13107 | -111.98018 | 4801 ft | 20 kts | 244° |
| 2026-04-15 00:34 | 41.13060 | -111.98141 | 4801 ft | 19 kts | 243° |
| 2026-04-15 00:34 | 41.12987 | -111.98304 | 4801 ft | 21 kts | 214° |
| 2026-04-15 00:34 | 41.12845 | -111.98318 | 4801 ft | 21 kts | 180° |
| 2026-04-15 00:34 | 41.12697 | -111.98319 | 4801 ft | 22 kts | 180° |
| 2026-04-15 00:35 | 41.12544 | -111.98320 | 4801 ft | 22 kts | 180° |
| 2026-04-15 00:35 | 41.12387 | -111.98318 | 4801 ft | 23 kts | 180° |
| 2026-04-15 00:35 | 41.12227 | -111.98320 | 4801 ft | 23 kts | 179° |
| 2026-04-15 00:35 | 41.12070 | -111.98321 | 4801 ft | 11 kts | 184° |
| 2026-04-15 00:36 | 41.12008 | -111.98332 | 4801 ft | 8 kts | 151° |
| 2026-04-15 00:36 | 41.12012 | -111.98294 | 4801 ft | 0 kts | 54° |